createdAt,value
2023-08-12T00:00:44.800Z,59.52
2023-08-12T00:01:48.052Z,59.42
2023-08-12T00:02:50.291Z,59.28
2023-08-12T00:03:53.825Z,59.19
2023-08-12T00:04:56.229Z,59.03
2023-08-12T00:06:01.640Z,59.29
2023-08-12T00:07:03.997Z,59.49
2023-08-12T00:08:07.476Z,59.49
2023-08-12T00:09:10.123Z,59.46
2023-08-12T00:10:14.316Z,59.29
2023-08-12T00:11:16.530Z,59.01
2023-08-12T00:12:19.694Z,58.96
2023-08-12T00:13:23.248Z,59.00
2023-08-12T00:14:26.493Z,59.10
2023-08-12T00:15:28.772Z,59.23
2023-08-12T00:16:32.053Z,59.19
2023-08-12T00:17:34.309Z,59.34
2023-08-12T00:18:38.100Z,59.44
2023-08-12T00:19:41.320Z,59.54
2023-08-12T00:20:43.509Z,59.45
2023-08-12T00:21:46.679Z,59.37
2023-08-12T00:22:48.849Z,59.27
2023-08-12T00:23:51.148Z,58.87
2023-08-12T00:24:54.427Z,58.96
2023-08-12T00:25:59.419Z,58.94
2023-08-12T00:27:02.672Z,58.94
2023-08-12T00:28:05.648Z,59.29
2023-08-12T00:29:10.072Z,59.25
2023-08-12T00:30:12.695Z,59.03
2023-08-12T00:31:15.969Z,58.91
2023-08-12T00:32:18.116Z,58.73
2023-08-12T00:33:21.244Z,58.67
2023-08-12T00:34:23.360Z,58.56
2023-08-12T00:35:26.493Z,58.54
2023-08-12T00:36:28.880Z,58.66
2023-08-12T00:37:32.135Z,58.78
2023-08-12T00:38:34.295Z,58.80
2023-08-12T00:39:37.629Z,58.86
2023-08-12T00:40:39.972Z,58.87
2023-08-12T00:41:43.248Z,58.74
2023-08-12T00:42:45.414Z,58.50
2023-08-12T00:43:48.676Z,58.58
2023-08-12T00:44:52.154Z,58.70
2023-08-12T00:45:55.544Z,58.86
2023-08-12T00:46:57.948Z,58.61
2023-08-12T00:48:01.247Z,58.61
2023-08-12T00:49:03.762Z,58.53
2023-08-12T00:50:08.032Z,58.59
2023-08-12T00:51:10.794Z,58.68
2023-08-12T00:52:14.498Z,58.67
2023-08-12T00:53:17.580Z,58.80
2023-08-12T00:54:23.207Z,58.84
2023-08-12T00:55:25.447Z,58.72
2023-08-12T00:56:28.911Z,58.76
2023-08-12T00:57:31.343Z,58.79
2023-08-12T00:58:34.560Z,58.77
2023-08-12T00:59:37.708Z,58.77
2023-08-12T01:00:41.914Z,58.76
2023-08-12T01:01:45.339Z,58.75
2023-08-12T01:02:49.758Z,58.86
2023-08-12T01:03:54.144Z,58.77
2023-08-12T01:04:57.152Z,58.82
2023-08-12T01:06:00.968Z,58.89
2023-08-12T01:07:04.665Z,58.98
2023-08-12T01:08:07.890Z,59.08
2023-08-12T01:09:10.673Z,59.26
2023-08-12T01:10:16.506Z,59.29
2023-08-12T01:11:27.149Z,59.19
2023-08-12T01:12:36.410Z,59.10
2023-08-12T01:13:48.258Z,59.24
2023-08-12T01:14:58.655Z,59.23
2023-08-12T01:16:06.682Z,59.12
2023-08-12T01:17:11.932Z,59.07
2023-08-12T01:18:15.719Z,59.19
2023-08-12T01:19:25.583Z,59.19
2023-08-12T01:20:31.619Z,59.27
2023-08-12T01:21:35.025Z,59.38
2023-08-12T01:22:40.598Z,59.28
2023-08-12T01:23:44.297Z,59.21
2023-08-12T01:24:47.568Z,59.24
2023-08-12T01:25:49.821Z,59.36
2023-08-12T01:26:52.992Z,59.35
2023-08-12T01:27:57.626Z,59.41
2023-08-12T01:29:00.910Z,59.39
2023-08-12T01:30:04.615Z,59.38
2023-08-12T01:31:13.510Z,59.40
2023-08-12T01:32:24.517Z,59.57
2023-08-12T01:33:34.037Z,59.74
2023-08-12T01:34:42.444Z,59.68
2023-08-12T01:35:49.683Z,59.50
2023-08-12T01:36:56.469Z,59.54
2023-08-12T01:38:02.079Z,59.82
2023-08-12T01:39:07.103Z,59.96
2023-08-12T01:40:12.100Z,59.70
2023-08-12T01:41:15.358Z,59.90
2023-08-12T01:42:19.390Z,59.78
2023-08-12T01:43:21.857Z,59.76
2023-08-12T01:44:25.127Z,59.91
2023-08-12T01:45:27.512Z,60.02
2023-08-12T01:46:30.712Z,60.08
2023-08-12T01:47:33.468Z,60.19
2023-08-12T01:48:36.649Z,60.25
2023-08-12T01:49:38.872Z,60.27
2023-08-12T01:50:47.908Z,60.09
2023-08-12T01:51:50.103Z,60.14
2023-08-12T01:52:53.276Z,60.13
2023-08-12T01:53:55.460Z,60.34
2023-08-12T01:55:00.001Z,60.27
2023-08-12T01:56:02.154Z,60.25
2023-08-12T01:57:06.881Z,60.20
2023-08-12T01:58:09.120Z,60.31
2023-08-12T01:59:12.312Z,60.12
2023-08-12T02:00:14.738Z,60.01
2023-08-12T02:01:17.989Z,60.06
2023-08-12T02:02:20.219Z,59.99
2023-08-12T02:03:23.468Z,60.32
2023-08-12T02:04:26.946Z,60.38
2023-08-12T02:05:30.152Z,60.21
2023-08-12T02:06:32.292Z,60.14
2023-08-12T02:07:34.447Z,60.02
2023-08-12T02:08:37.663Z,60.04
2023-08-12T02:09:39.826Z,60.01
2023-08-12T02:10:44.377Z,59.98
2023-08-12T02:11:46.536Z,60.04
2023-08-12T02:12:49.719Z,60.19
2023-08-12T02:13:51.907Z,60.12
2023-08-12T02:14:55.132Z,60.08
2023-08-12T02:15:57.353Z,60.10
2023-08-12T02:17:00.595Z,59.92
2023-08-12T02:18:03.117Z,59.93
2023-08-12T02:19:06.546Z,60.09
2023-08-12T02:20:09.270Z,60.19
2023-08-12T02:21:12.889Z,60.10
2023-08-12T02:22:15.234Z,59.79
2023-08-12T02:23:18.409Z,59.86
2023-08-12T02:24:20.618Z,60.05
2023-08-12T02:25:23.765Z,60.12
2023-08-12T02:26:27.366Z,60.23
2023-08-12T02:27:30.579Z,60.21
2023-08-12T02:28:32.849Z,59.84
2023-08-12T02:29:35.988Z,60.01
2023-08-12T02:30:38.182Z,60.05
2023-08-12T02:31:41.407Z,60.25
2023-08-12T02:32:44.864Z,60.38
2023-08-12T02:33:48.101Z,60.25
2023-08-12T02:34:50.342Z,60.13
2023-08-12T02:35:55.559Z,60.16
2023-08-12T02:36:57.729Z,60.16
2023-08-12T02:38:00.995Z,60.08
2023-08-12T02:39:03.354Z,60.12
2023-08-12T02:40:07.706Z,60.06
2023-08-12T02:41:09.924Z,60.21
2023-08-12T02:42:14.428Z,60.13
2023-08-12T02:43:16.741Z,60.05
2023-08-12T02:44:19.864Z,59.86
2023-08-12T02:45:22.017Z,59.81
2023-08-12T02:46:26.522Z,59.88
2023-08-12T02:47:28.767Z,59.81
2023-08-12T02:48:32.114Z,59.78
2023-08-12T02:49:34.275Z,59.83
2023-08-12T02:50:37.455Z,59.71
2023-08-12T02:51:39.579Z,59.73
2023-08-12T02:52:42.749Z,59.74
2023-08-12T02:53:44.992Z,59.75
2023-08-12T02:54:47.168Z,59.78
2023-08-12T02:55:50.325Z,59.79
2023-08-12T02:56:52.494Z,59.76
2023-08-12T02:57:57.252Z,59.76
2023-08-12T02:58:59.578Z,59.45
2023-08-12T03:00:02.755Z,59.18
2023-08-12T03:01:05.423Z,59.27
2023-08-12T03:02:08.681Z,59.35
2023-08-12T03:03:11.014Z,59.40
2023-08-12T03:04:14.405Z,59.21
2023-08-12T03:05:16.856Z,59.09
2023-08-12T03:06:20.030Z,59.33
2023-08-12T03:07:22.171Z,59.28
2023-08-12T03:08:25.863Z,59.25
2023-08-12T03:09:28.031Z,59.04
2023-08-12T03:10:31.142Z,59.06
2023-08-12T03:11:33.337Z,59.58
2023-08-12T03:12:37.190Z,59.53
2023-08-12T03:13:40.745Z,59.38
2023-08-12T03:14:43.893Z,59.19
2023-08-12T03:15:46.052Z,59.05
2023-08-12T03:16:49.139Z,59.06
2023-08-12T03:17:51.417Z,59.23
2023-08-12T03:18:54.518Z,59.39
2023-08-12T03:19:58.228Z,59.12
2023-08-12T03:21:01.351Z,58.97
2023-08-12T03:22:03.936Z,59.51
2023-08-12T03:23:07.074Z,59.45
2023-08-12T03:24:09.218Z,59.33
2023-08-12T03:25:12.539Z,59.17
2023-08-12T03:26:15.478Z,59.24
2023-08-12T03:27:18.589Z,59.27
2023-08-12T03:28:20.752Z,59.14
2023-08-12T03:29:25.284Z,59.02
2023-08-12T03:30:27.522Z,59.13
2023-08-12T03:31:30.624Z,59.07
2023-08-12T03:32:32.849Z,58.98
2023-08-12T03:33:36.039Z,59.23
2023-08-12T03:34:38.132Z,59.09
2023-08-12T03:35:41.400Z,58.95
2023-08-12T03:36:43.706Z,59.38
2023-08-12T03:37:46.805Z,59.25
2023-08-12T03:38:48.972Z,59.06
2023-08-12T03:39:52.134Z,59.25
2023-08-12T03:40:54.300Z,59.27
2023-08-12T03:41:57.415Z,59.34
2023-08-12T03:42:59.819Z,59.33
2023-08-12T03:44:02.975Z,59.42
2023-08-12T03:45:08.172Z,59.27
2023-08-12T03:46:11.368Z,59.53
2023-08-12T03:47:13.824Z,59.54
2023-08-12T03:48:17.208Z,59.51
2023-08-12T03:49:20.857Z,59.49
2023-08-12T03:50:25.637Z,59.55
2023-08-12T03:51:27.911Z,59.60
2023-08-12T03:52:31.011Z,59.70
2023-08-12T03:53:33.211Z,59.59
2023-08-12T03:54:36.323Z,59.59
2023-08-12T03:55:38.496Z,59.71
2023-08-12T03:56:41.673Z,59.77
2023-08-12T03:57:43.849Z,59.77
2023-08-12T03:58:47.020Z,59.57
2023-08-12T03:59:49.202Z,59.66
2023-08-12T04:00:53.784Z,59.89
2023-08-12T04:01:55.999Z,59.87
2023-08-12T04:02:59.411Z,59.78
2023-08-12T04:04:01.667Z,59.86
2023-08-12T04:05:05.024Z,59.94
2023-08-12T04:06:07.397Z,59.91
2023-08-12T04:07:11.067Z,60.07
2023-08-12T04:08:13.492Z,59.87
2023-08-12T04:09:16.599Z,60.02
2023-08-12T04:10:18.925Z,60.09
2023-08-12T04:11:22.227Z,59.86
2023-08-12T04:12:24.462Z,59.94
2023-08-12T04:13:27.686Z,59.90
2023-08-12T04:14:29.945Z,60.06
2023-08-12T04:15:33.125Z,60.25
2023-08-12T04:16:37.506Z,60.06
2023-08-12T04:17:42.508Z,60.47
2023-08-12T04:18:44.838Z,60.49
2023-08-12T04:19:47.999Z,60.20
2023-08-12T04:20:51.215Z,59.86
2023-08-12T04:21:54.413Z,59.79
2023-08-12T04:22:56.617Z,59.99
2023-08-12T04:23:59.841Z,60.54
2023-08-12T04:25:02.135Z,60.63
2023-08-12T04:26:05.280Z,60.51
2023-08-12T04:27:09.181Z,60.43
2023-08-12T04:28:12.579Z,60.66
2023-08-12T04:29:14.730Z,60.71
2023-08-12T04:30:18.681Z,60.81
2023-08-12T04:31:20.903Z,60.54
2023-08-12T04:32:25.551Z,60.53
2023-08-12T04:33:28.024Z,60.72
2023-08-12T04:34:31.226Z,60.81
2023-08-12T04:35:33.532Z,60.76
2023-08-12T04:36:36.788Z,60.55
2023-08-12T04:37:38.973Z,60.41
2023-08-12T04:38:42.148Z,60.46
2023-08-12T04:39:44.304Z,60.45
2023-08-12T04:40:48.139Z,60.33
2023-08-12T04:41:50.404Z,60.51
2023-08-12T04:42:53.493Z,60.68
2023-08-12T04:43:55.613Z,60.74
2023-08-12T04:44:58.784Z,60.52
2023-08-12T04:46:00.930Z,60.61
2023-08-12T04:47:04.316Z,60.42
2023-08-12T04:48:09.641Z,60.31
2023-08-12T04:49:13.008Z,60.32
2023-08-12T04:50:15.421Z,60.33
2023-08-12T04:51:18.574Z,60.31
2023-08-12T04:52:21.824Z,60.13
2023-08-12T04:53:25.052Z,60.30
2023-08-12T04:54:27.264Z,60.14
2023-08-12T04:55:29.471Z,60.09
2023-08-12T04:56:32.533Z,60.13
2023-08-12T04:57:34.783Z,59.82
2023-08-12T04:58:36.971Z,59.74
2023-08-12T04:59:40.219Z,59.93
2023-08-12T05:00:42.410Z,60.04
2023-08-12T05:01:58.566Z,60.05
2023-08-12T05:03:05.567Z,59.95
2023-08-12T05:04:10.118Z,60.26
2023-08-12T05:05:12.378Z,60.25
2023-08-12T05:06:15.574Z,60.35
2023-08-12T05:07:18.249Z,60.45
2023-08-12T05:08:21.497Z,60.41
2023-08-12T05:09:23.672Z,60.55
2023-08-12T05:10:26.885Z,60.79
2023-08-12T05:11:29.017Z,60.84
2023-08-12T05:12:32.314Z,60.83
2023-08-12T05:13:35.243Z,60.85
2023-08-12T05:14:38.494Z,61.01
2023-08-12T05:15:40.889Z,60.85
2023-08-12T05:16:44.156Z,60.82
2023-08-12T05:17:46.415Z,60.92
2023-08-12T05:18:49.610Z,60.79
2023-08-12T05:19:53.081Z,60.85
2023-08-12T05:20:56.238Z,60.94
2023-08-12T05:21:58.452Z,60.94
2023-08-12T05:23:01.611Z,60.97
2023-08-12T05:24:04.170Z,61.04
2023-08-12T05:25:08.175Z,61.12
2023-08-12T05:26:10.351Z,61.04
2023-08-12T05:27:13.515Z,61.22
2023-08-12T05:28:15.684Z,61.21
2023-08-12T05:29:18.894Z,61.25
2023-08-12T05:30:21.132Z,61.43
2023-08-12T05:31:24.392Z,61.70
2023-08-12T05:32:26.566Z,61.76
2023-08-12T05:33:29.793Z,61.61
2023-08-12T05:34:32.116Z,61.63
2023-08-12T05:35:36.962Z,61.42
2023-08-12T05:36:39.157Z,61.20
2023-08-12T05:37:42.273Z,61.43
2023-08-12T05:38:44.486Z,61.53
2023-08-12T05:39:47.625Z,61.50
2023-08-12T05:40:50.089Z,61.40
2023-08-12T05:41:53.528Z,61.49
2023-08-12T05:42:55.803Z,61.74
2023-08-12T05:43:58.963Z,61.60
2023-08-12T05:45:01.142Z,61.33
2023-08-12T05:46:04.314Z,61.30
2023-08-12T05:47:06.504Z,61.38
2023-08-12T05:48:10.093Z,61.67
2023-08-12T05:49:12.772Z,61.71
2023-08-12T05:50:16.183Z,61.65
2023-08-12T05:51:19.733Z,61.66
2023-08-12T05:52:22.941Z,61.76
2023-08-12T05:53:25.386Z,61.14
2023-08-12T05:54:28.566Z,61.00
2023-08-12T05:55:30.774Z,61.47
2023-08-12T05:56:33.922Z,61.48
2023-08-12T05:57:36.095Z,61.29
2023-08-12T05:58:39.280Z,60.99
2023-08-12T05:59:41.485Z,61.17
2023-08-12T06:00:46.462Z,61.10
2023-08-12T06:01:49.633Z,61.10
2023-08-12T06:02:52.841Z,60.70
2023-08-12T06:03:56.199Z,60.63
2023-08-12T06:04:58.545Z,60.98
2023-08-12T06:06:01.725Z,61.33
2023-08-12T06:07:05.399Z,61.40
2023-08-12T06:08:08.567Z,61.19
2023-08-12T06:09:10.783Z,61.10
2023-08-12T06:10:13.940Z,60.82
2023-08-12T06:11:16.130Z,60.84
2023-08-12T06:12:19.335Z,60.94
2023-08-12T06:13:21.533Z,60.59
2023-08-12T06:14:24.723Z,60.01
2023-08-12T06:15:27.068Z,60.28
2023-08-12T06:16:30.259Z,60.24
2023-08-12T06:17:32.495Z,59.69
2023-08-12T06:18:35.869Z,58.84
2023-08-12T06:19:38.051Z,58.18
2023-08-12T06:20:41.189Z,57.93
2023-08-12T06:21:43.326Z,57.82
2023-08-12T06:22:47.838Z,57.88
2023-08-12T06:23:49.984Z,57.83
2023-08-12T06:24:53.184Z,58.46
2023-08-12T06:25:55.394Z,58.67
2023-08-12T06:26:58.670Z,58.31
2023-08-12T06:28:00.982Z,58.16
2023-08-12T06:29:06.088Z,57.97
2023-08-12T06:30:10.074Z,57.88
2023-08-12T06:31:13.249Z,57.56
2023-08-12T06:32:15.825Z,56.85
2023-08-12T06:33:19.013Z,56.96
2023-08-12T06:34:21.179Z,57.57
2023-08-12T06:35:24.430Z,57.41
2023-08-12T06:36:26.598Z,56.53
2023-08-12T06:37:29.819Z,55.88
2023-08-12T06:38:33.443Z,56.86
2023-08-12T06:39:36.585Z,56.98
2023-08-12T06:40:39.394Z,56.85
2023-08-12T06:41:42.575Z,56.34
2023-08-12T06:42:44.724Z,56.22
2023-08-12T06:43:47.898Z,56.17
2023-08-12T06:44:55.620Z,55.97
2023-08-12T06:45:58.803Z,55.92
2023-08-12T06:47:01.041Z,55.97
2023-08-12T06:48:04.451Z,55.89
2023-08-12T06:49:06.706Z,55.69
2023-08-12T06:50:10.526Z,54.87
2023-08-12T06:51:12.802Z,55.07
2023-08-12T06:52:17.201Z,55.11
2023-08-12T06:53:19.324Z,54.80
2023-08-12T06:54:25.713Z,53.99
2023-08-12T06:55:27.929Z,54.24
2023-08-12T06:56:31.135Z,54.24
2023-08-12T06:57:33.303Z,54.03
2023-08-12T06:58:36.483Z,54.99
2023-08-12T06:59:38.822Z,55.31
2023-08-12T07:00:42.062Z,52.66
2023-08-12T07:01:44.360Z,52.02
2023-08-12T07:02:47.648Z,52.82
2023-08-12T07:03:49.818Z,53.37
2023-08-12T07:04:53.003Z,51.66
2023-08-12T07:05:55.510Z,52.44
2023-08-12T07:06:57.882Z,52.47
2023-08-12T07:08:01.086Z,52.30
2023-08-12T07:09:04.398Z,51.18
2023-08-12T07:10:09.865Z,51.95
2023-08-12T07:11:12.155Z,52.00
2023-08-12T07:12:15.297Z,50.45
2023-08-12T07:13:17.497Z,49.75
2023-08-12T07:14:20.693Z,49.73
2023-08-12T07:15:22.876Z,49.50
2023-08-12T07:16:25.998Z,50.29
2023-08-12T07:17:28.212Z,50.68
2023-08-12T07:18:32.113Z,51.30
2023-08-12T07:19:34.342Z,51.38
2023-08-12T07:20:37.424Z,51.54
2023-08-12T07:21:39.704Z,50.60
2023-08-12T07:22:42.885Z,49.93
2023-08-12T07:23:51.648Z,48.47
2023-08-12T07:25:05.476Z,47.84
2023-08-12T07:26:09.046Z,47.88
2023-08-12T07:27:12.296Z,48.38
2023-08-12T07:28:14.468Z,48.76
2023-08-12T07:29:17.660Z,48.31
2023-08-12T07:30:19.834Z,47.93
2023-08-12T07:31:23.037Z,47.94
2023-08-12T07:32:25.237Z,47.83
2023-08-12T07:33:28.412Z,47.55
2023-08-12T07:34:31.909Z,47.46
2023-08-12T07:35:35.468Z,46.31
2023-08-12T07:36:37.580Z,46.26
2023-08-12T07:37:40.798Z,45.60
2023-08-12T07:38:43.047Z,45.98
2023-08-12T07:39:46.582Z,46.06
2023-08-12T07:40:49.784Z,45.38
2023-08-12T07:41:54.247Z,45.43
2023-08-12T07:42:56.493Z,45.57
2023-08-12T07:43:59.584Z,45.46
2023-08-12T07:45:01.823Z,45.89
2023-08-12T07:46:10.138Z,46.90
2023-08-12T07:47:12.866Z,45.16
2023-08-12T07:48:15.959Z,45.58
2023-08-12T07:49:18.224Z,45.21
2023-08-12T07:50:21.619Z,44.22
2023-08-12T07:51:23.792Z,44.45
2023-08-12T07:52:26.983Z,42.39
2023-08-12T07:53:29.167Z,42.57
2023-08-12T07:54:32.276Z,42.89
2023-08-12T07:55:35.921Z,43.40
2023-08-12T07:56:39.070Z,43.25
2023-08-12T07:57:42.687Z,42.07
2023-08-12T07:58:46.887Z,42.36
2023-08-12T07:59:49.065Z,43.12
2023-08-12T08:00:54.770Z,42.38
2023-08-12T08:01:56.996Z,42.45
2023-08-12T08:03:00.218Z,42.41
2023-08-12T08:04:02.425Z,41.45
2023-08-12T08:05:06.156Z,41.35
2023-08-12T08:06:08.327Z,39.31
2023-08-12T08:07:13.189Z,40.08
2023-08-12T08:08:15.883Z,40.44
2023-08-12T08:09:19.104Z,41.04
2023-08-12T08:10:21.277Z,42.11
2023-08-12T08:11:26.373Z,41.76
2023-08-12T08:12:28.540Z,41.46
2023-08-12T08:13:33.104Z,41.79
2023-08-12T08:14:35.208Z,41.83
2023-08-12T08:15:38.709Z,41.21
2023-08-12T08:16:42.981Z,40.78
2023-08-12T08:17:46.347Z,40.37
2023-08-12T08:18:48.901Z,40.53
2023-08-12T08:19:52.063Z,41.01
2023-08-12T08:20:54.339Z,40.36
2023-08-12T08:21:57.561Z,40.47
2023-08-12T08:22:59.750Z,40.38
2023-08-12T08:24:02.872Z,40.85
2023-08-12T08:25:05.536Z,40.87
2023-08-12T08:26:09.330Z,41.76
2023-08-12T08:27:11.474Z,41.26
2023-08-12T08:28:14.693Z,40.96
2023-08-12T08:29:18.279Z,40.20
2023-08-12T08:30:21.506Z,40.36
2023-08-12T08:31:23.678Z,40.86
2023-08-12T08:32:27.092Z,40.94
2023-08-12T08:33:29.300Z,40.51
2023-08-12T08:34:32.456Z,40.51
2023-08-12T08:35:34.769Z,40.11
2023-08-12T08:36:38.249Z,40.05
2023-08-12T08:37:41.538Z,39.47
2023-08-12T08:38:44.690Z,40.46
2023-08-12T08:39:46.856Z,41.00
2023-08-12T08:40:51.440Z,40.85
2023-08-12T08:41:55.206Z,40.14
2023-08-12T08:43:05.828Z,39.64
2023-08-12T08:44:09.532Z,39.63
2023-08-12T08:45:15.782Z,39.72
2023-08-12T08:46:18.063Z,40.06
2023-08-12T08:47:21.348Z,40.18
2023-08-12T08:48:24.582Z,40.04
2023-08-12T08:49:27.036Z,40.06
2023-08-12T08:50:30.351Z,39.48
2023-08-12T08:51:33.077Z,39.39
2023-08-12T08:52:37.308Z,40.20
2023-08-12T08:53:40.374Z,40.13
2023-08-12T08:54:44.278Z,40.07
2023-08-12T08:55:46.958Z,39.75
2023-08-12T08:57:00.431Z,40.13
2023-08-12T08:58:09.447Z,38.80
2023-08-12T08:59:12.795Z,39.11
2023-08-12T09:00:18.110Z,38.88
2023-08-12T09:01:23.477Z,38.97
2023-08-12T09:02:26.521Z,37.44
2023-08-12T09:03:30.154Z,37.67
2023-08-12T09:04:33.072Z,37.98
2023-08-12T09:05:37.433Z,38.45
2023-08-12T09:06:40.953Z,39.09
2023-08-12T09:07:45.118Z,38.88
2023-08-12T09:08:49.805Z,38.61
2023-08-12T09:09:55.059Z,39.23
2023-08-12T09:10:58.872Z,40.46
2023-08-12T09:12:02.108Z,40.68
2023-08-12T09:13:04.645Z,38.03
2023-08-12T09:14:08.423Z,37.28
2023-08-12T09:15:11.276Z,37.47
2023-08-12T09:16:15.843Z,37.55
2023-08-12T09:17:18.033Z,37.66
2023-08-12T09:18:25.164Z,38.05
2023-08-12T09:19:27.385Z,37.87
2023-08-12T09:20:30.585Z,38.56
2023-08-12T09:21:32.810Z,38.36
2023-08-12T09:22:35.995Z,38.37
2023-08-12T09:23:38.855Z,39.00
2023-08-12T09:24:42.014Z,38.03
2023-08-12T09:25:45.216Z,37.53
2023-08-12T09:26:52.604Z,38.03
2023-08-12T09:27:57.408Z,38.03
2023-08-12T09:29:00.929Z,36.77
2023-08-12T09:30:05.921Z,37.81
2023-08-12T09:31:09.162Z,37.64
2023-08-12T09:32:15.176Z,37.78
2023-08-12T09:33:17.887Z,38.08
2023-08-12T09:34:20.032Z,37.27
2023-08-12T09:35:23.301Z,37.20
2023-08-12T09:36:25.489Z,36.96
2023-08-12T09:37:28.595Z,36.79
2023-08-12T09:38:31.364Z,36.39
2023-08-12T09:39:34.663Z,36.75
2023-08-12T09:40:37.223Z,36.80
2023-08-12T09:41:41.110Z,37.56
2023-08-12T09:42:46.869Z,37.52
2023-08-12T09:43:49.999Z,36.74
2023-08-12T09:44:52.498Z,36.71
2023-08-12T09:45:58.323Z,36.54
2023-08-12T09:47:00.600Z,35.83
2023-08-12T09:48:06.118Z,35.63
2023-08-12T09:49:08.508Z,35.78
2023-08-12T09:50:11.726Z,35.77
2023-08-12T09:51:14.203Z,36.03
2023-08-12T09:52:17.472Z,35.66
2023-08-12T09:53:19.689Z,35.04
2023-08-12T09:54:25.763Z,35.04
2023-08-12T09:55:28.029Z,35.92
2023-08-12T09:56:36.865Z,36.13
2023-08-12T09:57:43.717Z,36.46
2023-08-12T09:58:50.112Z,36.38
2023-08-12T09:59:54.855Z,36.14
2023-08-12T10:00:58.491Z,36.32
2023-08-12T10:02:01.043Z,36.30
2023-08-12T10:03:06.744Z,35.78
2023-08-12T10:04:13.132Z,35.23
2023-08-12T10:05:21.932Z,36.06
2023-08-12T10:06:24.442Z,36.39
2023-08-12T10:07:28.277Z,36.46
2023-08-12T10:08:30.965Z,35.91
2023-08-12T10:09:35.341Z,35.90
2023-08-12T10:10:37.753Z,35.60
2023-08-12T10:11:41.727Z,35.64
2023-08-12T10:12:43.945Z,34.74
2023-08-12T10:13:47.514Z,33.58
2023-08-12T10:14:49.663Z,33.93
2023-08-12T10:15:51.914Z,33.91
2023-08-12T10:17:04.439Z,34.35
2023-08-12T10:18:12.051Z,34.43
2023-08-12T10:19:19.279Z,34.59
2023-08-12T10:20:23.657Z,35.38
2023-08-12T10:21:26.973Z,35.53
2023-08-12T10:22:30.918Z,35.02
2023-08-12T10:23:34.739Z,34.94
2023-08-12T10:24:37.882Z,35.78
2023-08-12T10:25:43.999Z,34.51
2023-08-12T10:26:47.133Z,34.64
2023-08-12T10:27:50.630Z,35.09
2023-08-12T10:28:53.270Z,34.26
2023-08-12T10:29:57.452Z,34.40
2023-08-12T10:31:00.679Z,35.13
2023-08-12T10:32:03.558Z,35.86
2023-08-12T10:33:07.464Z,36.54
2023-08-12T10:34:19.590Z,35.75
2023-08-12T10:35:23.102Z,35.62
2023-08-12T10:36:27.336Z,35.82
2023-08-12T10:37:34.447Z,34.85
2023-08-12T10:38:36.781Z,34.47
2023-08-12T10:39:40.324Z,34.33
2023-08-12T10:40:42.551Z,35.52
2023-08-12T10:41:53.212Z,34.43
2023-08-12T10:42:55.332Z,33.98
2023-08-12T10:44:05.148Z,33.68
2023-08-12T10:45:07.996Z,34.56
2023-08-12T10:46:23.894Z,35.18
2023-08-12T10:47:26.186Z,34.77
2023-08-12T10:48:30.009Z,33.95
2023-08-12T10:49:39.754Z,33.45
2023-08-12T10:50:46.358Z,33.71
2023-08-12T10:51:50.067Z,34.17
2023-08-12T10:52:54.732Z,33.31
2023-08-12T10:54:12.237Z,33.69
2023-08-12T10:55:19.777Z,33.20
2023-08-12T10:56:21.925Z,31.96
2023-08-12T10:57:39.268Z,32.08
2023-08-12T10:58:46.504Z,32.54
2023-08-12T10:59:51.559Z,31.60
2023-08-12T11:00:55.464Z,31.28
2023-08-12T11:02:07.954Z,32.33
2023-08-12T11:03:10.214Z,33.08
2023-08-12T11:04:20.298Z,33.34
2023-08-12T11:05:24.626Z,32.47
2023-08-12T11:06:30.062Z,32.33
2023-08-12T11:07:39.717Z,33.19
2023-08-12T11:08:48.622Z,33.24
2023-08-12T11:09:54.356Z,32.97
2023-08-12T11:10:59.247Z,30.88
2023-08-12T11:12:01.825Z,31.38
2023-08-12T11:13:05.891Z,32.57
2023-08-12T11:14:15.181Z,32.76
2023-08-12T11:15:17.541Z,32.10
2023-08-12T11:16:20.682Z,31.55
2023-08-12T11:17:31.656Z,30.81
2023-08-12T11:18:34.946Z,30.08
2023-08-12T11:19:37.334Z,30.21
2023-08-12T11:20:42.776Z,30.90
2023-08-12T11:21:45.330Z,30.98
2023-08-12T11:22:48.968Z,31.66
2023-08-12T11:23:51.765Z,31.80
2023-08-12T11:24:55.583Z,32.03
2023-08-12T11:25:59.329Z,31.62
2023-08-12T11:27:03.450Z,30.90
2023-08-12T11:28:06.275Z,31.65
2023-08-12T11:29:11.508Z,31.43
2023-08-12T11:30:16.509Z,30.79
2023-08-12T11:31:20.847Z,29.73
2023-08-12T11:32:23.070Z,29.91
2023-08-12T11:33:26.294Z,30.58
2023-08-12T11:34:28.789Z,30.85
2023-08-12T11:35:32.889Z,30.86
2023-08-12T11:36:36.582Z,31.35
2023-08-12T11:37:39.247Z,31.88
2023-08-12T11:38:42.449Z,30.99
2023-08-12T11:39:44.980Z,31.58
2023-08-12T11:40:48.090Z,31.85
2023-08-12T11:41:51.599Z,32.09
2023-08-12T11:42:55.928Z,32.84
2023-08-12T11:43:58.349Z,33.30
2023-08-12T11:45:00.618Z,33.10
2023-08-12T11:46:03.782Z,32.83
2023-08-12T11:47:06.348Z,33.15
2023-08-12T11:48:09.713Z,32.83
2023-08-12T11:49:11.884Z,32.58
2023-08-12T11:50:15.370Z,33.32
2023-08-12T11:51:17.809Z,34.49
2023-08-12T11:52:22.690Z,34.41
2023-08-12T11:53:24.993Z,33.49
2023-08-12T11:54:29.935Z,32.93
2023-08-12T11:55:32.689Z,33.40
2023-08-12T11:56:35.981Z,33.49
2023-08-12T11:57:40.655Z,32.71
2023-08-12T11:58:53.097Z,32.95
2023-08-12T12:00:00.432Z,33.17
2023-08-12T12:01:03.608Z,33.65
2023-08-12T12:02:06.174Z,32.13
2023-08-12T12:03:08.536Z,32.97
2023-08-12T12:04:12.805Z,32.54
2023-08-12T12:05:15.265Z,32.23
2023-08-12T12:06:18.568Z,31.98
2023-08-12T12:07:23.398Z,31.91
2023-08-12T12:08:26.916Z,32.57
2023-08-12T12:09:30.583Z,32.86
2023-08-12T12:10:35.893Z,34.04
2023-08-12T12:11:38.727Z,33.14
2023-08-12T12:12:40.905Z,32.54
2023-08-12T12:13:44.081Z,32.71
2023-08-12T12:14:48.475Z,33.68
2023-08-12T12:15:51.692Z,32.69
2023-08-12T12:16:53.959Z,32.81
2023-08-12T12:17:57.182Z,33.17
2023-08-12T12:18:59.573Z,32.79
2023-08-12T12:20:03.827Z,32.29
2023-08-12T12:21:06.077Z,32.24
2023-08-12T12:22:09.512Z,32.37
2023-08-12T12:23:13.036Z,32.51
2023-08-12T12:24:15.376Z,32.29
2023-08-12T12:25:20.289Z,31.14
2023-08-12T12:26:23.929Z,31.52
2023-08-12T12:27:27.360Z,31.38
2023-08-12T12:28:29.688Z,31.47
2023-08-12T12:29:32.856Z,31.28
2023-08-12T12:30:35.080Z,31.00
2023-08-12T12:31:38.665Z,31.47
2023-08-12T12:32:40.912Z,32.28
2023-08-12T12:33:43.093Z,31.89
2023-08-12T12:34:46.262Z,31.13
2023-08-12T12:35:57.578Z,32.21
2023-08-12T12:37:03.276Z,32.01
2023-08-12T12:38:05.409Z,31.71
2023-08-12T12:39:09.975Z,31.36
2023-08-12T12:40:12.947Z,30.93
2023-08-12T12:41:15.622Z,31.08
2023-08-12T12:42:18.785Z,30.58
2023-08-12T12:43:21.145Z,30.81
2023-08-12T12:44:24.311Z,30.61
2023-08-12T12:45:26.596Z,29.99
2023-08-12T12:46:30.098Z,29.83
2023-08-12T12:47:32.430Z,29.99
2023-08-12T12:48:35.661Z,30.44
2023-08-12T12:49:37.801Z,30.20
2023-08-12T12:50:40.954Z,30.53
2023-08-12T12:51:43.042Z,30.02
2023-08-12T12:52:46.255Z,29.92
2023-08-12T12:53:48.511Z,30.04
2023-08-12T12:54:53.308Z,30.11
2023-08-12T12:55:57.353Z,30.65
2023-08-12T12:57:00.958Z,30.26
2023-08-12T12:58:03.166Z,30.70
2023-08-12T12:59:06.521Z,30.76
2023-08-12T13:00:12.840Z,30.81
2023-08-12T13:01:16.409Z,30.87
2023-08-12T13:02:18.575Z,30.97
2023-08-12T13:03:22.141Z,30.75
2023-08-12T13:04:24.407Z,30.89
2023-08-12T13:05:27.597Z,31.55
2023-08-12T13:06:29.816Z,31.49
2023-08-12T13:07:32.999Z,31.69
2023-08-12T13:08:35.196Z,31.98
2023-08-12T13:09:39.693Z,32.24
2023-08-12T13:10:44.168Z,32.12
2023-08-12T13:11:47.272Z,31.71
2023-08-12T13:12:49.486Z,32.45
2023-08-12T13:13:52.577Z,31.96
2023-08-12T13:14:54.804Z,31.05
2023-08-12T13:15:58.021Z,31.04
2023-08-12T13:17:00.178Z,30.62
2023-08-12T13:18:04.135Z,30.26
2023-08-12T13:19:06.424Z,30.31
2023-08-12T13:20:11.519Z,30.77
2023-08-12T13:21:13.761Z,31.46
2023-08-12T13:22:16.932Z,31.85
2023-08-12T13:23:19.121Z,31.67
2023-08-12T13:24:22.387Z,32.04
2023-08-12T13:25:24.533Z,31.94
2023-08-12T13:26:29.233Z,31.56
2023-08-12T13:27:31.375Z,31.12
2023-08-12T13:28:35.236Z,30.98
2023-08-12T13:29:37.447Z,31.34
2023-08-12T13:30:40.582Z,31.69
2023-08-12T13:31:42.926Z,31.45
2023-08-12T13:32:46.526Z,30.99
2023-08-12T13:33:48.915Z,30.86
2023-08-12T13:34:52.073Z,30.82
2023-08-12T13:35:54.314Z,31.01
2023-08-12T13:36:57.485Z,31.05
2023-08-12T13:37:59.750Z,31.56
2023-08-12T13:39:02.944Z,32.12